createdAt,value
2019-03-25T00:01:47.342Z,2.53
2019-03-25T00:04:15.310Z,2.77
2019-03-25T00:06:43.338Z,3.13
2019-03-25T00:09:11.252Z,1.93
2019-03-25T00:11:39.277Z,2.53
2019-03-25T00:14:07.373Z,2.20
2019-03-25T00:16:35.310Z,2.50
2019-03-25T00:19:03.319Z,3.10
2019-03-25T00:21:31.363Z,3.30
2019-03-25T00:23:59.371Z,2.50
2019-03-25T00:26:27.301Z,3.13
2019-03-25T00:28:55.332Z,3.23
2019-03-25T00:31:23.354Z,3.43
2019-03-25T00:33:51.379Z,2.87
2019-03-25T00:36:19.415Z,2.60
2019-03-25T00:38:47.404Z,3.90
2019-03-25T00:41:15.351Z,3.07
2019-03-25T00:43:43.374Z,2.13
2019-03-25T00:46:11.384Z,2.63
2019-03-25T00:48:39.390Z,2.63
2019-03-25T00:51:08.421Z,2.67
2019-03-25T00:53:36.425Z,2.67
2019-03-25T00:56:04.475Z,2.67
2019-03-25T00:58:32.496Z,3.00
2019-03-25T01:01:01.607Z,2.97
2019-03-25T01:03:29.636Z,3.33
2019-03-25T01:05:57.581Z,3.97
2019-03-25T01:08:25.588Z,3.67
2019-03-25T01:10:53.594Z,3.50
2019-03-25T01:13:21.598Z,3.70
2019-03-25T01:15:49.582Z,3.47
2019-03-25T01:18:17.606Z,2.80
2019-03-25T01:20:45.617Z,4.83
2019-03-25T01:23:13.595Z,3.33
2019-03-25T01:25:41.620Z,3.37
2019-03-25T01:28:09.637Z,3.60
2019-03-25T01:30:37.576Z,3.37
2019-03-25T01:33:05.915Z,3.80
2019-03-25T01:35:33.844Z,3.10
2019-03-25T01:38:01.889Z,3.47
2019-03-25T01:40:29.922Z,3.17
2019-03-25T01:42:57.924Z,3.20
2019-03-25T01:45:25.895Z,2.63
2019-03-25T01:47:53.825Z,3.67
2019-03-25T01:50:21.821Z,3.67
2019-03-25T01:52:50.097Z,3.03
2019-03-25T01:55:18.529Z,4.03
2019-03-25T01:57:46.472Z,3.77
2019-03-25T02:00:14.695Z,3.10
2019-03-25T02:02:42.774Z,3.90
2019-03-25T02:05:10.818Z,3.37
2019-03-25T02:07:38.843Z,2.93
2019-03-25T02:10:08.149Z,3.70
2019-03-25T02:12:36.176Z,3.90
2019-03-25T02:15:04.927Z,3.23
2019-03-25T02:17:32.945Z,3.43
2019-03-25T02:20:00.930Z,4.10
2019-03-25T02:22:28.916Z,3.30
2019-03-25T02:24:57.063Z,3.07
2019-03-25T02:27:25.091Z,3.10
2019-03-25T02:29:53.095Z,3.30
2019-03-25T02:32:21.151Z,3.30
2019-03-25T02:34:49.144Z,2.33
2019-03-25T02:37:17.136Z,3.57
2019-03-25T02:39:45.210Z,3.17
2019-03-25T02:42:13.194Z,2.80
2019-03-25T02:44:41.201Z,3.10
2019-03-25T02:47:09.218Z,2.80
2019-03-25T02:49:37.193Z,2.90
2019-03-25T02:52:05.199Z,2.67
2019-03-25T02:54:33.217Z,3.10
2019-03-25T02:57:01.252Z,3.13
2019-03-25T02:59:29.306Z,2.30
2019-03-25T03:01:57.320Z,3.67
2019-03-25T03:04:25.401Z,3.27
2019-03-25T03:06:53.358Z,2.30
2019-03-25T03:09:21.384Z,2.63
2019-03-25T03:11:49.383Z,3.80
2019-03-25T03:14:17.360Z,3.13
2019-03-25T03:16:45.436Z,3.30
2019-03-25T03:19:13.419Z,3.00
2019-03-25T03:21:41.474Z,4.27
2019-03-25T03:24:09.472Z,2.57
2019-03-25T03:26:37.449Z,2.97
2019-03-25T03:29:05.454Z,2.50
2019-03-25T03:31:33.483Z,2.43
2019-03-25T03:34:01.512Z,2.60
2019-03-25T03:36:29.482Z,2.40
2019-03-25T03:38:57.530Z,2.70
2019-03-25T03:41:25.674Z,2.67
2019-03-25T03:43:53.655Z,3.07
2019-03-25T03:46:21.661Z,2.23
2019-03-25T03:48:49.651Z,3.03
2019-03-25T03:51:17.558Z,2.40
2019-03-25T03:53:45.797Z,2.03
2019-03-25T03:56:14.600Z,2.70
2019-03-25T03:58:43.178Z,2.60
2019-03-25T04:01:11.214Z,2.33
2019-03-25T04:03:39.201Z,2.10
2019-03-25T04:06:07.077Z,2.40
2019-03-25T04:08:37.115Z,2.10
2019-03-25T04:11:05.108Z,2.40
2019-03-25T04:13:33.120Z,2.77
2019-03-25T04:16:01.587Z,2.67
2019-03-25T04:18:29.981Z,2.37
2019-03-25T04:20:57.976Z,2.17
2019-03-25T04:23:26.002Z,1.60
2019-03-25T04:25:54.354Z,2.40
2019-03-25T04:28:22.346Z,1.90
2019-03-25T04:30:50.384Z,2.10
2019-03-25T04:33:18.352Z,1.80
2019-03-25T04:35:46.388Z,1.60
2019-03-25T04:38:14.436Z,1.80
2019-03-25T04:40:42.472Z,1.80
2019-03-25T04:43:10.479Z,1.67
2019-03-25T04:45:38.514Z,2.87
2019-03-25T04:48:06.532Z,1.50
2019-03-25T04:50:34.439Z,1.60
2019-03-25T04:53:02.485Z,1.33
2019-03-25T04:55:30.510Z,1.67
2019-03-25T04:57:58.527Z,1.67
2019-03-25T05:00:34.170Z,2.40
2019-03-25T05:03:02.040Z,1.43
2019-03-25T05:05:29.914Z,1.93
2019-03-25T05:07:57.969Z,1.60
2019-03-25T05:10:25.953Z,1.33
2019-03-25T05:12:53.975Z,1.60
2019-03-25T05:15:21.879Z,1.43
2019-03-25T05:17:49.799Z,1.30
2019-03-25T05:20:17.780Z,1.47
2019-03-25T05:22:45.678Z,1.40
2019-03-25T05:25:13.653Z,1.37
2019-03-25T05:27:41.675Z,1.13
2019-03-25T05:30:09.789Z,1.30
2019-03-25T05:32:37.787Z,1.37
2019-03-25T05:35:05.957Z,1.30
2019-03-25T05:37:33.995Z,1.60
2019-03-25T05:40:02.100Z,1.00
2019-03-25T05:42:30.099Z,1.23
2019-03-25T05:44:58.091Z,1.93
2019-03-25T05:47:27.712Z,1.60
2019-03-25T05:49:55.714Z,1.60
2019-03-25T05:52:23.618Z,1.60
2019-03-25T05:54:51.615Z,1.10
2019-03-25T05:57:19.541Z,1.10
2019-03-25T05:59:47.623Z,1.50
2019-03-25T06:02:15.687Z,1.43
2019-03-25T06:04:43.713Z,1.77
2019-03-25T06:07:11.705Z,1.20
2019-03-25T06:09:39.627Z,1.67
2019-03-25T06:12:07.709Z,1.27
2019-03-25T06:14:35.787Z,2.10
2019-03-25T06:17:03.767Z,1.10
2019-03-25T06:19:31.778Z,1.43
2019-03-25T06:21:59.836Z,2.57
2019-03-25T06:24:29.047Z,1.80
2019-03-25T06:26:57.038Z,0.90
2019-03-25T06:29:25.036Z,1.30
2019-03-25T06:31:53.086Z,1.50
2019-03-25T06:34:21.160Z,1.47
2019-03-25T06:36:49.159Z,1.63
2019-03-25T06:39:17.178Z,1.43
2019-03-25T06:41:45.202Z,1.40
2019-03-25T06:44:13.125Z,1.90
2019-03-25T06:46:41.145Z,1.47
2019-03-25T06:49:09.080Z,1.50
2019-03-25T06:51:37.194Z,2.27
2019-03-25T06:54:05.371Z,3.67
2019-03-25T06:56:33.398Z,2.60
2019-03-25T06:59:01.354Z,3.87
2019-03-25T07:01:29.189Z,3.33
2019-03-25T07:03:57.255Z,2.40
2019-03-25T07:06:25.251Z,1.83
2019-03-25T07:08:53.286Z,2.17
2019-03-25T07:11:21.365Z,1.97
2019-03-25T07:13:49.271Z,1.50
2019-03-25T07:16:17.284Z,1.93
2019-03-25T07:18:45.292Z,2.23
2019-03-25T07:21:13.264Z,1.43
2019-03-25T07:23:41.236Z,1.77
2019-03-25T07:26:09.202Z,1.43
2019-03-25T07:28:38.770Z,2.00
2019-03-25T07:31:08.945Z,1.27
2019-03-25T07:33:36.876Z,1.37
2019-03-25T07:36:04.862Z,1.60
2019-03-25T07:38:32.797Z,1.37
2019-03-25T07:41:00.782Z,1.63
2019-03-25T07:43:28.806Z,1.60
2019-03-25T07:45:56.764Z,1.90
2019-03-25T07:48:24.912Z,2.20
2019-03-25T07:50:52.884Z,1.70
2019-03-25T07:53:23.711Z,2.27
2019-03-25T07:55:51.790Z,1.20
2019-03-25T07:58:19.827Z,2.87
2019-03-25T08:00:47.898Z,1.60
2019-03-25T08:03:15.924Z,1.67
2019-03-25T08:05:43.825Z,1.57
2019-03-25T08:08:11.857Z,2.13
2019-03-25T08:10:39.884Z,1.90
2019-03-25T08:13:07.999Z,1.63
2019-03-25T08:15:36.076Z,1.17
2019-03-25T08:18:04.889Z,2.03
2019-03-25T08:20:32.820Z,1.13
2019-03-25T08:23:00.681Z,1.73
2019-03-25T08:25:28.682Z,1.97
2019-03-25T08:28:00.390Z,1.40
2019-03-25T08:30:26.476Z,1.30
2019-03-25T08:32:54.472Z,1.23
2019-03-25T08:35:22.462Z,1.43
2019-03-25T08:37:50.426Z,1.50
2019-03-25T08:40:18.409Z,1.40
2019-03-25T08:42:46.475Z,1.30
2019-03-25T08:45:14.605Z,1.00
2019-03-25T08:47:42.523Z,0.87
2019-03-25T08:50:11.671Z,1.17
2019-03-25T08:52:39.693Z,1.47
2019-03-25T08:55:07.861Z,1.13
2019-03-25T08:57:35.923Z,1.93
2019-03-25T09:00:05.599Z,1.57
2019-03-25T09:02:35.537Z,2.00
2019-03-25T09:05:03.743Z,2.23
2019-03-25T09:07:31.720Z,1.50
2019-03-25T09:09:59.730Z,1.77
2019-03-25T09:12:27.757Z,1.30
2019-03-25T09:14:55.748Z,1.00
2019-03-25T09:17:23.659Z,2.07
2019-03-25T09:19:51.753Z,0.70
2019-03-25T09:22:19.773Z,1.60
2019-03-25T09:24:47.727Z,1.57
2019-03-25T09:27:15.750Z,1.80
2019-03-25T09:29:43.633Z,1.67
2019-03-25T09:32:11.549Z,1.60
2019-03-25T09:34:39.565Z,2.03
2019-03-25T09:37:07.588Z,1.87
2019-03-25T09:39:35.591Z,1.77
2019-03-25T09:42:03.793Z,1.40
2019-03-25T09:44:31.770Z,1.37
2019-03-25T09:46:59.842Z,1.23
2019-03-25T09:49:27.734Z,0.70
2019-03-25T09:51:55.727Z,1.27
2019-03-25T09:54:23.735Z,1.20
2019-03-25T09:56:51.741Z,1.60
2019-03-25T09:59:19.725Z,1.53
2019-03-25T10:01:47.655Z,0.90
2019-03-25T10:04:15.529Z,1.47
2019-03-25T10:06:43.811Z,1.33
2019-03-25T10:09:11.799Z,1.33
2019-03-25T10:11:39.855Z,1.90
2019-03-25T10:14:07.841Z,1.90
2019-03-25T10:16:35.764Z,2.60
2019-03-25T10:19:03.683Z,2.17
2019-03-25T10:21:31.584Z,1.57
2019-03-25T10:23:59.525Z,1.73
2019-03-25T10:26:27.483Z,1.10
2019-03-25T10:28:55.453Z,1.40
2019-03-25T10:31:23.349Z,1.30
2019-03-25T10:33:51.247Z,1.57
2019-03-25T10:36:19.249Z,1.60
2019-03-25T10:38:47.253Z,1.57
2019-03-25T10:41:15.181Z,1.87
2019-03-25T10:43:43.180Z,2.47
2019-03-25T10:46:11.203Z,2.10
2019-03-25T10:48:39.230Z,1.60
2019-03-25T10:51:07.227Z,2.27
2019-03-25T10:53:35.249Z,1.33
2019-03-25T10:56:03.255Z,1.87
2019-03-25T10:58:31.281Z,1.20
2019-03-25T11:00:59.526Z,1.67
2019-03-25T11:03:28.389Z,1.60
2019-03-25T11:05:56.356Z,1.60
2019-03-25T11:08:24.370Z,1.20
2019-03-25T11:10:52.419Z,1.87
2019-03-25T11:13:20.513Z,1.63
2019-03-25T11:15:48.399Z,1.33
2019-03-25T11:18:16.365Z,1.60
2019-03-25T11:20:44.237Z,1.73
2019-03-25T11:23:12.137Z,1.63
2019-03-25T11:25:40.133Z,1.43
2019-03-25T11:28:08.123Z,1.43
2019-03-25T11:31:04.675Z,0.67
2019-03-25T11:33:32.671Z,0.90
2019-03-25T11:36:02.618Z,1.10
2019-03-25T11:38:30.419Z,1.70
2019-03-25T11:40:58.479Z,1.53
2019-03-25T11:43:26.435Z,1.57
2019-03-25T11:45:54.461Z,2.13
2019-03-25T11:48:22.486Z,2.20
2019-03-25T11:50:50.369Z,2.50
2019-03-25T11:53:18.293Z,1.47
2019-03-25T11:55:46.222Z,1.30
2019-03-25T11:58:14.308Z,1.37
2019-03-25T12:00:42.255Z,1.03
2019-03-25T12:03:10.125Z,1.30
2019-03-25T12:05:38.042Z,1.53
2019-03-25T12:08:06.046Z,1.33
2019-03-25T12:10:34.009Z,1.87
2019-03-25T12:13:01.939Z,2.83
2019-03-25T12:15:49.122Z,1.73
2019-03-25T12:18:17.042Z,1.33
2019-03-25T12:20:45.029Z,1.27
2019-03-25T12:23:13.077Z,1.80
2019-03-25T12:25:41.076Z,1.30
2019-03-25T12:28:09.148Z,1.40
2019-03-25T12:30:37.148Z,2.63
2019-03-25T12:33:05.131Z,1.93
2019-03-25T12:35:33.133Z,1.87
2019-03-25T12:38:01.194Z,1.77
2019-03-25T12:40:29.208Z,1.27
2019-03-25T12:42:57.279Z,1.43
2019-03-25T12:45:25.179Z,0.80
2019-03-25T12:47:53.204Z,1.00
2019-03-25T12:50:22.166Z,1.33
2019-03-25T12:52:50.116Z,0.93
2019-03-25T12:55:18.011Z,1.70
2019-03-25T12:57:45.943Z,1.07
2019-03-25T13:00:15.922Z,1.37
2019-03-25T13:02:43.913Z,1.70
2019-03-25T13:05:11.999Z,1.47
2019-03-25T13:07:40.010Z,1.27
2019-03-25T13:10:08.203Z,1.50
2019-03-25T13:12:36.235Z,1.40
2019-03-25T13:15:05.316Z,1.83
2019-03-25T13:17:33.235Z,1.30
2019-03-25T13:20:01.184Z,1.90
2019-03-25T13:22:29.232Z,1.47
2019-03-25T13:24:57.305Z,2.00
2019-03-25T13:27:25.328Z,1.47
2019-03-25T13:29:53.258Z,1.50
2019-03-25T13:32:21.244Z,1.10
2019-03-25T13:34:49.153Z,0.90
2019-03-25T13:37:17.060Z,1.40
2019-03-25T13:39:45.032Z,2.03
2019-03-25T13:42:13.001Z,1.40
2019-03-25T13:44:41.022Z,1.30
2019-03-25T13:47:09.023Z,1.00
2019-03-25T13:49:37.073Z,1.00
2019-03-25T13:52:07.639Z,1.93
2019-03-25T13:54:35.671Z,1.33
2019-03-25T13:57:03.646Z,1.37
2019-03-25T13:59:33.824Z,1.07
2019-03-25T14:02:01.806Z,1.43
2019-03-25T14:04:29.797Z,1.90
2019-03-25T14:06:57.772Z,1.77
2019-03-25T14:09:25.786Z,1.30
2019-03-25T14:11:53.760Z,1.30
2019-03-25T14:14:21.695Z,0.93
2019-03-25T14:16:49.719Z,1.07
2019-03-25T14:19:17.707Z,1.53
2019-03-25T14:21:45.619Z,1.27
2019-03-25T14:24:13.624Z,1.10
2019-03-25T14:26:43.239Z,2.13
2019-03-25T14:29:11.167Z,1.53
2019-03-25T14:31:39.171Z,1.97
2019-03-25T14:34:07.047Z,1.70
2019-03-25T14:36:35.073Z,1.87
2019-03-25T14:39:03.731Z,1.77
2019-03-25T14:41:31.625Z,1.60
2019-03-25T14:43:59.566Z,1.63
2019-03-25T14:46:27.563Z,1.13
2019-03-25T14:48:55.431Z,1.60
2019-03-25T14:51:23.440Z,2.03
2019-03-25T14:53:51.462Z,1.50
2019-03-25T14:56:19.435Z,1.33
2019-03-25T14:58:47.360Z,1.30
2019-03-25T15:01:15.394Z,1.30
2019-03-25T15:03:43.414Z,1.87
2019-03-25T15:06:11.329Z,1.70
2019-03-25T15:08:39.223Z,1.50
2019-03-25T15:11:07.137Z,1.27
2019-03-25T15:13:35.045Z,1.40
2019-03-25T15:16:02.997Z,1.03
2019-03-25T15:18:30.936Z,1.30
2019-03-25T15:20:58.924Z,1.93
2019-03-25T15:23:26.958Z,1.60
2019-03-25T15:26:10.552Z,2.13
2019-03-25T15:28:38.486Z,2.63
2019-03-25T15:31:06.583Z,1.77
2019-03-25T15:33:34.778Z,1.87
2019-03-25T15:36:02.836Z,1.77
2019-03-25T15:38:30.883Z,1.87
2019-03-25T15:40:58.946Z,2.37
2019-03-25T15:43:36.146Z,2.50
2019-03-25T15:46:04.122Z,2.27
2019-03-25T15:48:32.176Z,2.80
2019-03-25T15:51:06.416Z,1.63
2019-03-25T15:53:34.437Z,2.23
2019-03-25T15:56:04.046Z,1.93
2019-03-25T15:58:31.960Z,1.47
2019-03-25T16:01:00.057Z,1.00
2019-03-25T16:03:27.930Z,2.20
2019-03-25T16:05:55.897Z,1.43
2019-03-25T16:08:25.066Z,1.47
2019-03-25T16:10:53.026Z,1.27
2019-03-25T16:13:21.025Z,1.73
2019-03-25T16:15:49.140Z,1.90
2019-03-25T16:18:40.766Z,1.30
2019-03-25T16:21:09.142Z,1.13
2019-03-25T16:23:37.339Z,1.27
2019-03-25T16:26:05.518Z,1.23
2019-03-25T16:28:33.512Z,1.20
2019-03-25T16:31:01.549Z,1.63
2019-03-25T16:33:32.308Z,1.57
2019-03-25T16:36:02.187Z,1.37
2019-03-25T16:38:30.614Z,3.03
2019-03-25T16:46:42.418Z,2.33
2019-03-25T16:49:11.533Z,1.33
2019-03-25T16:51:39.739Z,1.90
2019-03-25T16:54:07.829Z,2.10
2019-03-25T16:56:36.431Z,1.20
2019-03-25T16:59:04.566Z,1.67
2019-03-25T17:01:32.657Z,1.90
2019-03-25T17:04:05.389Z,1.43
2019-03-25T17:06:33.374Z,1.70
2019-03-25T17:09:01.353Z,2.40
2019-03-25T17:11:29.751Z,2.17
2019-03-25T17:14:02.517Z,3.00
2019-03-25T17:16:31.494Z,1.83
2019-03-25T17:19:02.033Z,1.93
2019-03-25T17:21:31.181Z,1.13
2019-03-25T17:24:00.021Z,3.13
2019-03-25T17:26:29.380Z,2.27
2019-03-25T17:28:58.181Z,1.70
2019-03-25T17:31:26.119Z,2.17
2019-03-25T17:33:55.628Z,4.93
2019-03-25T17:36:23.616Z,2.33
2019-03-25T17:38:51.535Z,1.53
2019-03-25T17:41:19.529Z,1.43
2019-03-25T17:43:47.558Z,1.80
2019-03-25T17:46:17.584Z,1.63
2019-03-25T17:48:45.596Z,1.10
2019-03-25T17:51:13.621Z,1.57
2019-03-25T17:53:41.637Z,1.80
2019-03-25T17:56:09.609Z,2.10
2019-03-25T17:58:37.725Z,1.50
2019-03-25T18:01:17.421Z,2.30
2019-03-25T18:03:45.470Z,2.63
2019-03-25T18:06:15.789Z,1.00
2019-03-25T18:08:44.171Z,2.10
2019-03-25T18:11:12.231Z,1.90
2019-03-25T18:13:41.421Z,1.93
2019-03-25T18:16:09.397Z,2.87
2019-03-25T18:18:37.703Z,2.83
2019-03-25T18:21:12.246Z,2.00
2019-03-25T18:23:44.750Z,1.73
2019-03-25T18:26:21.547Z,2.33
2019-03-25T18:28:54.487Z,2.90
2019-03-25T18:31:23.119Z,2.47
2019-03-25T18:33:51.244Z,2.60
2019-03-25T18:36:19.311Z,2.43
2019-03-25T18:38:47.198Z,2.40
2019-03-25T18:41:15.069Z,2.77
2019-03-25T18:43:43.042Z,3.23
2019-03-25T18:46:11.031Z,2.63
2019-03-25T18:48:39.043Z,2.03
2019-03-25T18:51:07.121Z,2.47
2019-03-25T18:53:35.115Z,2.30
2019-03-25T18:56:03.537Z,2.00
2019-03-25T18:58:31.600Z,2.23
2019-03-25T19:00:59.653Z,2.20
2019-03-25T19:03:27.657Z,1.60
2019-03-25T19:05:55.703Z,2.50
2019-03-25T19:08:23.736Z,2.07
2019-03-25T19:10:51.781Z,2.17
2019-03-25T19:13:19.821Z,3.27
2019-03-25T19:15:49.631Z,1.80
2019-03-25T19:18:17.776Z,2.20
2019-03-25T19:20:46.960Z,1.10
2019-03-25T19:23:16.972Z,2.00
2019-03-25T19:25:44.988Z,1.70
2019-03-25T19:28:13.377Z,1.87
2019-03-25T19:30:41.366Z,1.87
2019-03-25T19:33:09.361Z,2.07
2019-03-25T19:35:37.272Z,1.80
2019-03-25T19:38:05.341Z,1.60
2019-03-25T19:40:33.286Z,1.80
2019-03-25T19:43:01.306Z,3.00
2019-03-25T19:45:29.322Z,1.70
2019-03-25T19:47:57.249Z,2.07
2019-03-25T19:50:25.275Z,1.67
2019-03-25T19:52:53.261Z,2.27
2019-03-25T19:55:21.276Z,1.47
2019-03-25T19:57:49.317Z,1.90
2019-03-25T20:00:22.002Z,1.70
2019-03-25T20:02:50.020Z,1.90
2019-03-25T20:05:17.998Z,2.20
2019-03-25T20:07:46.279Z,2.00
2019-03-25T20:10:39.530Z,2.53
2019-03-25T20:13:07.536Z,2.23
2019-03-25T20:15:45.382Z,1.90
2019-03-25T20:18:05.492Z,2.80
2019-03-25T20:20:33.381Z,1.57
2019-03-25T20:23:01.431Z,1.77
2019-03-25T20:25:29.548Z,2.40
2019-03-25T20:27:57.469Z,2.70
2019-03-25T20:30:25.576Z,2.23
2019-03-25T20:32:53.556Z,2.23
2019-03-25T20:35:21.478Z,3.57
2019-03-25T20:37:49.484Z,1.43
2019-03-25T20:40:17.505Z,2.57
2019-03-25T20:42:45.559Z,1.77
2019-03-25T20:45:13.543Z,2.20
2019-03-25T20:47:41.575Z,2.30
2019-03-25T20:50:09.908Z,2.63
2019-03-25T20:52:38.046Z,2.00
2019-03-25T20:55:07.013Z,2.20
2019-03-25T20:57:34.963Z,1.73
2019-03-25T21:00:03.752Z,2.63
2019-03-25T21:02:44.208Z,2.03
2019-03-25T21:05:01.931Z,2.00
2019-03-25T21:07:30.036Z,2.47
2019-03-25T21:09:58.091Z,2.70
2019-03-25T21:12:26.100Z,1.67
2019-03-25T21:14:54.072Z,1.97
2019-03-25T21:17:22.100Z,1.37
2019-03-25T21:19:50.075Z,2.20
2019-03-25T21:22:20.819Z,2.53
2019-03-25T21:24:49.042Z,2.23
2019-03-25T21:27:17.026Z,1.80
2019-03-25T21:29:45.108Z,2.40
2019-03-25T21:32:13.175Z,1.93
2019-03-25T21:34:41.115Z,2.00
2019-03-25T21:37:10.523Z,2.63
2019-03-25T21:39:41.299Z,1.73
2019-03-25T21:42:14.244Z,1.93
2019-03-25T21:44:46.877Z,1.70
2019-03-25T21:47:16.664Z,1.63
2019-03-25T21:49:44.741Z,1.87
2019-03-25T21:52:14.167Z,2.17
2019-03-25T21:54:45.588Z,2.20
2019-03-25T21:57:14.144Z,1.37
2019-03-25T21:59:42.187Z,2.57
2019-03-25T22:02:13.207Z,1.70
2019-03-25T22:04:41.271Z,2.17
2019-03-25T22:07:09.287Z,2.10
2019-03-25T22:09:37.193Z,2.43
2019-03-25T22:12:05.166Z,1.70
2019-03-25T22:14:33.161Z,1.03
2019-03-25T22:17:01.150Z,1.93
2019-03-25T22:19:29.067Z,1.73
2019-03-25T22:21:57.071Z,1.93
2019-03-25T22:24:25.039Z,1.73
2019-03-25T22:26:53.005Z,1.50
2019-03-25T22:29:21.008Z,2.37
2019-03-25T22:31:48.987Z,2.30
2019-03-25T22:34:16.852Z,1.20
2019-03-25T22:36:44.825Z,1.77
2019-03-25T22:39:12.777Z,3.03
2019-03-25T22:41:40.917Z,1.73
2019-03-25T22:44:08.952Z,1.60
2019-03-25T22:46:37.139Z,1.80
2019-03-25T22:49:05.011Z,1.20
2019-03-25T22:51:32.900Z,1.20
2019-03-25T22:54:01.053Z,1.27
2019-03-25T22:56:29.010Z,1.93
2019-03-25T22:58:57.057Z,1.97
2019-03-25T23:01:25.259Z,1.57
2019-03-25T23:03:53.211Z,1.27
2019-03-25T23:06:21.113Z,0.90
2019-03-25T23:08:48.983Z,2.07
2019-03-25T23:11:16.875Z,1.20
2019-03-25T23:13:44.754Z,1.37
2019-03-25T23:16:12.743Z,2.80
2019-03-25T23:18:40.612Z,2.13
2019-03-25T23:21:08.630Z,1.27
2019-03-25T23:23:36.615Z,2.30
2019-03-25T23:26:04.588Z,1.77
2019-03-25T23:28:32.527Z,1.43
2019-03-25T23:31:00.423Z,1.30
2019-03-25T23:33:28.301Z,0.90
2019-03-25T23:35:56.339Z,1.40
2019-03-25T23:38:24.395Z,1.70
2019-03-25T23:40:52.348Z,1.80
2019-03-25T23:43:20.368Z,1.43
2019-03-25T23:45:48.354Z,1.10
2019-03-25T23:48:16.369Z,1.13
2019-03-25T23:50:44.402Z,1.27
2019-03-25T23:53:12.378Z,0.83
2019-03-25T23:55:40.284Z,1.30
2019-03-25T23:58:08.262Z,1.33
